Time;durP1;ratioP1;P1;durP2;ratioP2;P2;SDS_P1;SDS_P2;PMS_P1;PMS_P2;Temp;Humidity;BMP_temperature;BMP_pressure;BME280_temperature;BME280_humidity;BME280_pressure;Samples;Min_cycle;Max_cycle;Signal;HPM_P1;HPM_P2
2023/04/23 00:02:10;;;;;;;5.80;5.20;;;;;;;;;;4886609;29;20028;-77
2023/04/23 00:04:36;;;;;;;6.30;5.68;;;;;;;;;;4886068;29;20037;-77
2023/04/23 00:07:02;;;;;;;7.85;6.10;;;;;;;;;;4886130;29;20036;-77
2023/04/23 00:09:29;;;;;;;6.05;5.55;;;;;;;;;;4885770;29;20087;-77
2023/04/23 00:11:55;;;;;;;5.75;5.13;;;;;;;;;;4885079;29;20035;-77
2023/04/23 00:14:20;;;;;;;5.95;5.28;;;;;;;;;;4886184;29;20379;-77
2023/04/23 00:16:45;;;;;;;6.50;5.97;;;;;;;;;;4874181;29;20077;-77
2023/04/23 00:19:11;;;;;;;8.10;6.10;;;;;;;;;;4882789;29;20360;-77
2023/04/23 00:21:36;;;;;;;9.15;5.80;;;;;;;;;;4885788;29;20156;-77
2023/04/23 00:24:01;;;;;;;6.80;6.10;;;;;;;;;;4885353;29;20032;-77
2023/04/23 00:26:27;;;;;;;7.07;6.30;;;;;;;;;;4884139;29;20051;-77
2023/04/23 00:28:52;;;;;;;8.55;5.97;;;;;;;;;;4886394;29;20398;-78
2023/04/23 00:31:18;;;;;;;7.03;6.28;;;;;;;;;;4883803;29;20029;-77
2023/04/23 00:33:43;;;;;;;5.80;5.22;;;;;;;;;;4885535;29;20056;-77
2023/04/23 00:36:08;;;;;;;8.80;6.15;;;;;;;;;;4885528;29;20101;-77
2023/04/23 00:38:34;;;;;;;6.43;5.57;;;;;;;;;;4877575;29;20029;-77
2023/04/23 00:40:59;;;;;;;10.20;6.55;;;;;;;;;;4884832;29;20021;-78
2023/04/23 00:43:25;;;;;;;10.00;6.95;;;;;;;;;;4887740;29;20027;-79
2023/04/23 00:45:50;;;;;;;7.22;6.00;;;;;;;;;;4887890;29;20040;-76
2023/04/23 00:48:15;;;;;;;7.32;5.65;;;;;;;;;;4887484;29;20033;-79
2023/04/23 00:50:41;;;;;;;5.97;5.45;;;;;;;;;;4887585;29;20108;-79
2023/04/23 00:53:06;;;;;;;6.55;5.95;;;;;;;;;;4888871;29;20013;-76
2023/04/23 00:55:32;;;;;;;6.13;5.63;;;;;;;;;;4887434;29;20048;-79
2023/04/23 00:57:57;;;;;;;6.20;5.55;;;;;;;;;;4888923;29;20039;-79
2023/04/23 01:00:22;;;;;;;5.72;5.20;;;;;;;;;;4888686;29;20028;-80
2023/04/23 01:02:49;;;;;;;5.68;5.15;;;;;;;;;;4888539;29;20039;-79
2023/04/23 01:05:15;;;;;;;6.47;5.60;;;;;;;;;;4888106;29;20024;-79
2023/04/23 01:07:42;;;;;;;6.25;5.68;;;;;;;;;;4887808;29;20036;-79
2023/04/23 01:10:07;;;;;;;6.15;5.60;;;;;;;;;;4887049;29;20762;-79
2023/04/23 01:12:33;;;;;;;8.00;6.15;;;;;;;;;;4885973;29;20024;-79
2023/04/23 01:14:59;;;;;;;9.10;5.47;;;;;;;;;;4887829;29;20052;-79
2023/04/23 01:17:25;;;;;;;6.70;6.13;;;;;;;;;;4889993;29;20035;-79
2023/04/23 01:19:51;;;;;;;7.03;5.95;;;;;;;;;;4891855;29;20024;-79
2023/04/23 01:22:16;;;;;;;6.95;6.28;;;;;;;;;;4890354;29;20032;-79
2023/04/23 01:24:41;;;;;;;9.60;5.78;;;;;;;;;;4890865;29;20055;-80
2023/04/23 01:27:07;;;;;;;5.97;5.35;;;;;;;;;;4889801;29;20033;-79
2023/04/23 01:29:33;;;;;;;8.07;6.75;;;;;;;;;;4889326;29;20095;-79
2023/04/23 01:31:58;;;;;;;7.15;6.55;;;;;;;;;;4885410;29;20554;-79
2023/04/23 01:34:24;;;;;;;8.90;7.47;;;;;;;;;;4873580;29;20031;-76
2023/04/23 01:36:49;;;;;;;12.48;11.48;;;;;;;;;;4878165;29;20025;-76
2023/04/23 01:39:15;;;;;;;9.45;8.55;;;;;;;;;;4882473;29;20023;-76
2023/04/23 01:41:41;;;;;;;7.88;5.90;;;;;;;;;;4889482;29;20028;-79
2023/04/23 01:44:06;;;;;;;7.15;5.32;;;;;;;;;;4873740;29;20051;-78
2023/04/23 01:46:31;;;;;;;9.68;5.90;;;;;;;;;;4885675;29;20051;-80
2023/04/23 01:48:57;;;;;;;10.23;6.93;;;;;;;;;;4887102;29;20033;-76
2023/04/23 01:51:24;;;;;;;8.82;5.70;;;;;;;;;;4888054;29;20418;-77
2023/04/23 01:53:49;;;;;;;8.02;6.47;;;;;;;;;;4888241;29;20506;-78
2023/04/23 01:56:15;;;;;;;6.53;6.03;;;;;;;;;;4904971;29;20063;-78
2023/04/23 01:58:40;;;;;;;6.47;5.97;;;;;;;;;;4889143;29;20459;-76
2023/04/23 02:01:05;;;;;;;8.35;7.55;;;;;;;;;;4906521;29;20059;-79
2023/04/23 02:03:32;;;;;;;7.38;6.53;;;;;;;;;;4907751;29;20032;-79
2023/04/23 02:05:58;;;;;;;7.80;6.28;;;;;;;;;;4906343;29;20403;-79
2023/04/23 02:08:25;;;;;;;9.02;7.05;;;;;;;;;;4907652;29;20045;-79
2023/04/23 02:10:50;;;;;;;7.00;6.32;;;;;;;;;;4888569;29;20068;-79
2023/04/23 02:13:15;;;;;;;13.98;6.43;;;;;;;;;;4890845;29;20423;-78
2023/04/23 02:15:41;;;;;;;8.75;6.32;;;;;;;;;;4905833;29;20027;-78
2023/04/23 02:18:07;;;;;;;9.45;7.18;;;;;;;;;;4888464;29;20024;-75
2023/04/23 02:20:35;;;;;;;10.18;6.05;;;;;;;;;;4906007;29;20424;-76
2023/04/23 02:23:01;;;;;;;8.48;6.35;;;;;;;;;;4889141;29;20028;-76
2023/04/23 02:25:26;;;;;;;6.53;5.78;;;;;;;;;;4889460;29;20529;-76
2023/04/23 02:27:51;;;;;;;6.50;5.90;;;;;;;;;;4888273;29;20032;-76
2023/04/23 02:30:16;;;;;;;7.93;7.15;;;;;;;;;;4906765;29;20115;-76
2023/04/23 02:32:42;;;;;;;7.60;6.90;;;;;;;;;;4904665;29;20039;-76
2023/04/23 02:35:09;;;;;;;9.45;7.20;;;;;;;;;;4888343;29;20036;-77
2023/04/23 02:37:35;;;;;;;10.25;6.55;;;;;;;;;;4905262;29;20017;-77
2023/04/23 02:40:01;;;;;;;9.35;6.88;;;;;;;;;;4907014;29;20140;-77
2023/04/23 02:42:26;;;;;;;9.15;8.20;;;;;;;;;;4906104;29;20645;-78
2023/04/23 02:44:52;;;;;;;7.75;6.70;;;;;;;;;;4905706;29;20040;-77
2023/04/23 02:47:17;;;;;;;7.32;6.57;;;;;;;;;;4905278;29;20028;-77
2023/04/23 02:49:42;;;;;;;7.88;6.47;;;;;;;;;;4887329;29;20300;-77
2023/04/23 02:52:07;;;;;;;9.75;6.47;;;;;;;;;;4904763;29;20440;-77
2023/04/23 02:54:33;;;;;;;10.60;6.72;;;;;;;;;;4903703;29;20056;-77
2023/04/23 02:56:58;;;;;;;12.95;9.60;;;;;;;;;;4888610;29;20032;-77
2023/04/23 02:59:24;;;;;;;26.23;13.30;;;;;;;;;;4886637;29;20503;-77
2023/04/23 03:01:50;;;;;;;57.10;31.90;;;;;;;;;;4870588;29;20021;-77
2023/04/23 03:04:15;;;;;;;14.25;11.52;;;;;;;;;;4878475;29;20024;-77
2023/04/23 03:06:41;;;;;;;14.88;11.35;;;;;;;;;;4904720;29;20596;-77
2023/04/23 03:09:07;;;;;;;14.18;12.57;;;;;;;;;;4904349;29;20032;-77
2023/04/23 03:11:33;;;;;;;14.45;10.75;;;;;;;;;;4904081;29;20035;-77
2023/04/23 03:13:58;;;;;;;9.23;7.97;;;;;;;;;;4904547;29;20020;-77
2023/04/23 03:16:23;;;;;;;13.00;9.70;;;;;;;;;;4887405;29;20024;-76
2023/04/23 03:18:48;;;;;;;13.18;9.00;;;;;;;;;;4887157;29;20035;-77
2023/04/23 03:21:14;;;;;;;9.10;8.27;;;;;;;;;;4886578;29;20398;-77
2023/04/23 03:23:39;;;;;;;9.85;7.88;;;;;;;;;;4888007;29;20025;-76
2023/04/23 03:26:05;;;;;;;9.93;7.70;;;;;;;;;;4904773;29;20119;-77
2023/04/23 03:28:30;;;;;;;8.00;6.90;;;;;;;;;;4905557;29;20103;-77
2023/04/23 03:30:55;;;;;;;7.65;6.95;;;;;;;;;;4904524;29;20072;-77
2023/04/23 03:33:20;;;;;;;6.32;5.78;;;;;;;;;;4888020;29;20037;-77
2023/04/23 03:35:46;;;;;;;22.05;12.27;;;;;;;;;;4888385;29;20028;-77
2023/04/23 03:38:11;;;;;;;82.63;38.83;;;;;;;;;;4905439;29;20032;-77
2023/04/23 03:40:36;;;;;;;66.45;35.17;;;;;;;;;;4906124;29;20578;-77
2023/04/23 03:43:02;;;;;;;71.95;41.47;;;;;;;;;;4905033;29;20107;-77
2023/04/23 03:45:27;;;;;;;34.13;20.20;;;;;;;;;;4905271;29;20036;-77
2023/04/23 03:47:52;;;;;;;23.17;15.15;;;;;;;;;;4905196;29;20028;-77
2023/04/23 03:50:18;;;;;;;20.35;14.75;;;;;;;;;;4906043;29;20786;-78
2023/04/23 03:52:43;;;;;;;27.77;18.25;;;;;;;;;;4904924;29;20020;-77
2023/04/23 03:55:08;;;;;;;27.73;18.90;;;;;;;;;;4905918;29;20044;-77
2023/04/23 03:57:35;;;;;;;19.70;14.85;;;;;;;;;;4905676;29;20016;-77
2023/04/23 04:00:00;;;;;;;20.50;15.98;;;;;;;;;;4905316;29;20024;-77
2023/04/23 04:02:25;;;;;;;14.68;13.18;;;;;;;;;;4887485;29;20880;-77
2023/04/23 04:04:50;;;;;;;13.23;11.38;;;;;;;;;;4898483;29;20083;-77
2023/04/23 04:07:17;;;;;;;14.70;10.07;;;;;;;;;;4904461;29;20043;-77
2023/04/23 04:09:42;;;;;;;11.18;10.00;;;;;;;;;;4904540;29;20466;-77
2023/04/23 04:12:07;;;;;;;10.98;10.05;;;;;;;;;;4904749;29;20092;-77
2023/04/23 04:14:32;;;;;;;7.95;7.13;;;;;;;;;;4906963;29;20024;-77
2023/04/23 04:16:58;;;;;;;7.70;6.63;;;;;;;;;;4909636;29;20896;-77
2023/04/23 04:19:23;;;;;;;9.18;8.30;;;;;;;;;;4891004;29;20123;-77
2023/04/23 04:21:50;;;;;;;14.43;12.88;;;;;;;;;;4907727;29;20108;-77
2023/04/23 04:24:15;;;;;;;8.52;7.63;;;;;;;;;;4908106;29;20016;-77
2023/04/23 04:26:43;;;;;;;8.73;6.70;;;;;;;;;;4890926;29;20047;-77
2023/04/23 04:29:09;;;;;;;7.30;5.18;;;;;;;;;;4907036;29;20060;-79
2023/04/23 04:31:34;;;;;;;5.72;5.07;;;;;;;;;;4906871;29;20062;-78
2023/04/23 04:34:00;;;;;;;7.13;6.03;;;;;;;;;;4907763;29;20047;-77
2023/04/23 04:36:27;;;;;;;6.47;5.28;;;;;;;;;;4908799;29;20032;-79
2023/04/23 04:38:57;;;;;;;8.00;5.50;;;;;;;;;;4893321;29;20771;-79
2023/04/23 04:41:24;;;;;;;6.07;5.57;;;;;;;;;;4910774;29;20035;-79
2023/04/23 04:43:50;;;;;;;9.23;8.32;;;;;;;;;;4907727;29;20031;-79
2023/04/23 04:46:18;;;;;;;8.60;6.18;;;;;;;;;;4907106;29;20051;-78
2023/04/23 04:48:44;;;;;;;4.35;3.78;;;;;;;;;;4906375;29;20020;-78
2023/04/23 04:51:09;;;;;;;6.18;4.20;;;;;;;;;;4886334;29;20032;-78
2023/04/23 04:53:34;;;;;;;6.75;3.17;;;;;;;;;;4907879;29;20419;-77
2023/04/23 04:56:00;;;;;;;4.22;3.72;;;;;;;;;;4886586;29;20115;-78
2023/04/23 04:58:25;;;;;;;5.20;3.20;;;;;;;;;;4886411;29;20114;-78
2023/04/23 05:00:50;;;;;;;5.93;3.53;;;;;;;;;;4884774;29;20272;-80
2023/04/23 05:03:19;;;;;;;3.40;3.10;;;;;;;;;;4884313;29;20372;-78
2023/04/23 05:05:44;;;;;;;5.57;3.70;;;;;;;;;;4886106;29;20033;-78
2023/04/23 05:08:10;;;;;;;3.78;2.90;;;;;;;;;;4885395;29;20479;-79
2023/04/23 05:10:35;;;;;;;20.02;14.82;;;;;;;;;;4885489;29;20381;-78
2023/04/23 05:13:01;;;;;;;6.00;3.80;;;;;;;;;;4875163;29;20139;-78
2023/04/23 05:15:26;;;;;;;2.70;2.50;;;;;;;;;;4881417;29;20064;-78
2023/04/23 05:17:52;;;;;;;4.77;3.07;;;;;;;;;;4885045;29;20581;-79
2023/04/23 05:20:18;;;;;;;5.68;2.97;;;;;;;;;;4883858;29;20265;-79
2023/04/23 05:22:44;;;;;;;3.83;2.70;;;;;;;;;;4865722;29;20017;-78
2023/04/23 05:25:13;;;;;;;3.70;2.70;;;;;;;;;;4876247;29;20076;-79
2023/04/23 05:27:39;;;;;;;3.25;2.70;;;;;;;;;;4883647;29;20261;-80
2023/04/23 05:30:07;;;;;;;4.40;3.15;;;;;;;;;;4883290;29;20039;-80
2023/04/23 05:32:32;;;;;;;4.00;3.70;;;;;;;;;;4885451;29;20021;-79
2023/04/23 05:35:01;;;;;;;5.35;4.10;;;;;;;;;;4871079;29;20115;-80
2023/04/23 05:37:27;;;;;;;4.72;4.07;;;;;;;;;;4884873;29;20044;-81
2023/04/23 05:39:52;;;;;;;5.13;3.90;;;;;;;;;;4883957;29;20064;-82
2023/04/23 05:42:17;;;;;;;5.77;4.33;;;;;;;;;;4884376;29;20040;-80
2023/04/23 05:44:43;;;;;;;7.20;5.20;;;;;;;;;;4895139;29;20277;-84
2023/04/23 05:47:12;;;;;;;7.30;4.80;;;;;;;;;;4886146;29;20261;-80
2023/04/23 05:49:37;;;;;;;9.18;4.35;;;;;;;;;;4884841;29;20024;-82
2023/04/23 05:52:02;;;;;;;5.07;4.30;;;;;;;;;;4884437;29;20032;-81
2023/04/23 05:54:28;;;;;;;6.88;4.38;;;;;;;;;;4888881;29;20041;-79
2023/04/23 05:56:53;;;;;;;7.68;4.72;;;;;;;;;;4903116;29;20028;-79
2023/04/23 05:59:19;;;;;;;7.53;5.22;;;;;;;;;;4898030;29;20554;-79
2023/04/23 06:01:44;;;;;;;10.52;5.40;;;;;;;;;;4893201;29;20021;-80
2023/04/23 06:04:09;;;;;;;6.68;5.88;;;;;;;;;;4902451;29;20087;-82
2023/04/23 06:06:36;;;;;;;6.53;5.88;;;;;;;;;;4903299;29;20056;-84
2023/04/23 06:09:03;;;;;;;8.30;6.28;;;;;;;;;;4932411;29;20092;-81
2023/04/23 06:11:28;;;;;;;8.00;7.20;;;;;;;;;;4912091;29;20032;-79
2023/04/23 06:13:55;;;;;;;7.82;7.13;;;;;;;;;;4906194;29;20036;-80
2023/04/23 06:16:20;;;;;;;8.32;7.53;;;;;;;;;;4919806;29;20020;-81
2023/04/23 06:18:45;;;;;;;15.15;7.65;;;;;;;;;;4916828;29;20036;-81
2023/04/23 06:21:11;;;;;;;8.38;7.57;;;;;;;;;;4911245;29;20016;-80
2023/04/23 06:23:36;;;;;;;9.75;7.75;;;;;;;;;;4912138;29;20047;-80
2023/04/23 06:26:03;;;;;;;11.02;8.23;;;;;;;;;;4923399;29;20032;-81
2023/04/23 06:28:28;;;;;;;11.25;7.50;;;;;;;;;;4937997;29;20031;-82
2023/04/23 06:30:53;;;;;;;8.35;7.65;;;;;;;;;;4935328;29;20020;-80
2023/04/23 06:33:19;;;;;;;8.93;7.18;;;;;;;;;;4936251;29;20031;-80
2023/04/23 06:35:45;;;;;;;7.85;6.50;;;;;;;;;;4910047;29;20083;-81
2023/04/23 06:38:10;;;;;;;7.00;6.00;;;;;;;;;;4917426;29;20056;-81
2023/04/23 06:40:36;;;;;;;8.80;6.35;;;;;;;;;;4940222;29;20005;-80
2023/04/23 06:43:03;;;;;;;10.77;6.78;;;;;;;;;;4939864;29;20071;-81
2023/04/23 06:45:30;;;;;;;5.85;5.18;;;;;;;;;;4925648;29;20040;-80
2023/04/23 06:47:56;;;;;;;6.70;5.70;;;;;;;;;;4924334;29;20012;-81
2023/04/23 06:50:21;;;;;;;8.23;5.95;;;;;;;;;;4923691;29;20032;-82
2023/04/23 06:52:46;;;;;;;8.05;5.78;;;;;;;;;;4924983;29;20043;-83
2023/04/23 06:55:12;;;;;;;7.53;6.22;;;;;;;;;;4883457;29;20052;-82
2023/04/23 06:57:37;;;;;;;6.70;6.03;;;;;;;;;;4887248;29;20418;-82
2023/04/23 07:00:05;;;;;;;8.15;6.13;;;;;;;;;;4892268;29;20060;-82
2023/04/23 07:02:30;;;;;;;8.32;6.70;;;;;;;;;;4906664;29;20011;-81
2023/04/23 07:04:56;;;;;;;8.70;6.70;;;;;;;;;;4915264;29;20103;-80
2023/04/23 07:07:21;;;;;;;8.18;6.60;;;;;;;;;;4911734;29;20057;-81
2023/04/23 07:09:46;;;;;;;7.93;6.85;;;;;;;;;;4914958;29;20095;-81
2023/04/23 07:12:12;;;;;;;9.30;7.53;;;;;;;;;;4905413;29;20052;-82
2023/04/23 07:14:37;;;;;;;7.45;6.70;;;;;;;;;;4902993;29;20390;-80
2023/04/23 07:17:02;;;;;;;10.63;7.15;;;;;;;;;;4908114;29;20514;-80
2023/04/23 07:19:27;;;;;;;9.20;7.20;;;;;;;;;;4910129;29;20046;-80
2023/04/23 07:21:53;;;;;;;7.30;6.65;;;;;;;;;;4910151;29;20288;-80
2023/04/23 07:24:18;;;;;;;9.75;7.35;;;;;;;;;;4893009;29;20088;-80
2023/04/23 07:26:43;;;;;;;8.57;7.53;;;;;;;;;;4896849;29;20028;-80
2023/04/23 07:29:10;;;;;;;7.75;7.03;;;;;;;;;;4890278;29;20020;-80
2023/04/23 07:31:35;;;;;;;8.35;7.53;;;;;;;;;;4911169;29;20021;-81
2023/04/23 07:34:01;;;;;;;7.45;6.85;;;;;;;;;;4886885;29;20027;-81
2023/04/23 07:36:26;;;;;;;8.07;6.72;;;;;;;;;;4884678;29;20032;-83
2023/04/23 07:38:52;;;;;;;9.10;6.70;;;;;;;;;;5325013;23;20119;-85
2023/04/23 07:41:17;;;;;;;8.63;7.50;;;;;;;;;;4895133;29;20482;-86
2023/04/23 07:43:42;;;;;;;10.87;6.57;;;;;;;;;;4930051;28;20658;-85
2023/04/23 07:46:09;;;;;;;7.88;6.63;;;;;;;;;;4926410;29;20303;-81
2023/04/23 07:48:34;;;;;;;8.10;7.40;;;;;;;;;;4908741;29;20043;-80
2023/04/23 07:51:00;;;;;;;8.15;7.20;;;;;;;;;;4924931;29;20043;-81
2023/04/23 07:53:27;;;;;;;8.70;6.75;;;;;;;;;;4927905;29;20009;-81
2023/04/23 07:55:52;;;;;;;8.68;6.93;;;;;;;;;;4943865;29;20054;-79
2023/04/23 07:58:18;;;;;;;9.90;7.75;;;;;;;;;;4924662;29;20020;-84
2023/04/23 08:00:43;;;;;;;7.43;6.68;;;;;;;;;;4894692;29;20483;-83
2023/04/23 08:03:08;;;;;;;25.20;18.38;;;;;;;;;;4926981;29;20032;-79
2023/04/23 08:05:36;;;;;;;8.38;7.43;;;;;;;;;;4927598;29;20035;-81
2023/04/23 08:08:01;;;;;;;10.95;7.40;;;;;;;;;;4926573;29;20505;-78
2023/04/23 08:10:26;;;;;;;12.25;7.78;;;;;;;;;;4925110;29;20028;-81
2023/04/23 08:12:51;;;;;;;13.13;6.90;;;;;;;;;;4926031;29;20027;-81
2023/04/23 08:15:17;;;;;;;10.75;7.35;;;;;;;;;;4941570;29;20067;-80
2023/04/23 08:17:42;;;;;;;7.17;6.23;;;;;;;;;;4929078;29;20850;-80
2023/04/23 08:20:07;;;;;;;8.27;7.57;;;;;;;;;;4906757;29;20724;-79
2023/04/23 08:22:33;;;;;;;9.80;7.53;;;;;;;;;;4930197;29;20268;-79
2023/04/23 08:24:58;;;;;;;12.95;7.40;;;;;;;;;;4932815;29;20055;-80
2023/04/23 08:27:23;;;;;;;7.50;6.80;;;;;;;;;;4902317;29;20031;-78
2023/04/23 08:29:49;;;;;;;8.25;6.80;;;;;;;;;;4926441;29;20038;-78
2023/04/23 08:32:14;;;;;;;9.20;6.43;;;;;;;;;;4926287;29;20195;-80
2023/04/23 08:34:39;;;;;;;10.52;6.82;;;;;;;;;;4925042;29;20939;-79
2023/04/23 08:37:05;;;;;;;8.10;7.03;;;;;;;;;;4900822;29;20119;-78
2023/04/23 08:39:31;;;;;;;6.65;5.95;;;;;;;;;;4918660;29;20061;-79
2023/04/23 08:42:01;;;;;;;6.72;6.03;;;;;;;;;;4898917;29;20116;-80
2023/04/23 08:44:27;;;;;;;7.03;6.32;;;;;;;;;;4904723;29;20087;-79
2023/04/23 08:46:53;;;;;;;7.75;6.03;;;;;;;;;;4908361;29;20067;-79
2023/04/23 08:49:18;;;;;;;6.13;5.22;;;;;;;;;;4924865;29;20062;-78
2023/04/23 08:51:53;;;;;;;8.88;5.72;;;;;;;;;;4922136;29;20035;-78
2023/04/23 08:54:24;;;;;;;8.15;5.70;;;;;;;;;;4931025;29;20019;-80
2023/04/23 08:56:49;;;;;;;6.55;4.88;;;;;;;;;;4906338;29;20028;-81
2023/04/23 08:59:16;;;;;;;9.73;5.45;;;;;;;;;;4895430;29;20035;-81
2023/04/23 09:01:42;;;;;;;6.97;5.47;;;;;;;;;;4932194;29;20012;-79
2023/04/23 09:04:08;;;;;;;6.93;5.30;;;;;;;;;;4915638;29;20107;-83
2023/04/23 09:06:34;;;;;;;5.90;5.30;;;;;;;;;;4900453;29;20500;-84
2023/04/23 09:08:59;;;;;;;6.32;5.82;;;;;;;;;;4906378;29;20024;-79
2023/04/23 09:11:26;;;;;;;9.85;6.07;;;;;;;;;;4929937;29;20047;-80
2023/04/23 09:13:51;;;;;;;5.80;5.25;;;;;;;;;;4893330;29;20091;-85
2023/04/23 09:16:16;;;;;;;7.00;5.88;;;;;;;;;;4900998;29;20043;-79
2023/04/23 09:18:42;;;;;;;6.70;5.47;;;;;;;;;;4907238;29;20462;-79
2023/04/23 09:21:07;;;;;;;8.38;5.38;;;;;;;;;;4908415;29;20489;-78
2023/04/23 09:23:33;;;;;;;10.85;5.47;;;;;;;;;;4891939;29;20035;-79
2023/04/23 09:25:58;;;;;;;6.47;5.68;;;;;;;;;;4908383;29;20031;-80
2023/04/23 09:28:36;;;;;;;8.10;5.55;;;;;;;;;;4925090;29;20039;-79
2023/04/23 09:31:04;;;;;;;6.85;5.32;;;;;;;;;;4915432;29;20019;-79
2023/04/23 09:33:31;;;;;;;11.40;5.75;;;;;;;;;;4908587;29;20630;-79
2023/04/23 09:35:57;;;;;;;5.55;5.03;;;;;;;;;;4892948;29;20036;-83
2023/04/23 09:38:22;;;;;;;5.88;4.75;;;;;;;;;;4898281;29;20030;-83
2023/04/23 09:40:49;;;;;;;5.57;5.03;;;;;;;;;;4916601;29;20019;-83
2023/04/23 09:43:14;;;;;;;5.38;4.57;;;;;;;;;;4905300;29;20034;-82
2023/04/23 09:45:49;;;;;;;6.53;5.05;;;;;;;;;;4923552;29;20433;-81
2023/04/23 09:48:14;;;;;;;7.40;4.10;;;;;;;;;;4925007;29;20019;-83
2023/04/23 09:50:39;;;;;;;7.32;4.45;;;;;;;;;;4896867;29;20467;-82
2023/04/23 09:53:06;;;;;;;6.88;4.53;;;;;;;;;;4905626;29;20026;-84
2023/04/23 09:55:37;;;;;;;8.00;4.43;;;;;;;;;;4897483;29;20024;-84
2023/04/23 09:58:03;;;;;;;6.47;4.50;;;;;;;;;;4906569;29;20019;-82
2023/04/23 10:00:31;;;;;;;7.35;4.40;;;;;;;;;;4924967;29;20016;-79
2023/04/23 10:02:58;;;;;;;5.68;5.18;;;;;;;;;;4918081;29;20039;-79
2023/04/23 10:05:23;;;;;;;6.65;4.20;;;;;;;;;;4917753;29;20035;-84
2023/04/23 10:07:48;;;;;;;4.53;4.13;;;;;;;;;;4904738;29;20379;-81
2023/04/23 10:10:14;;;;;;;9.50;4.93;;;;;;;;;;4922852;29;20070;-80
2023/04/23 10:12:41;;;;;;;6.95;4.32;;;;;;;;;;4920166;29;20427;-81
2023/04/23 10:15:08;;;;;;;7.65;3.83;;;;;;;;;;4901691;29;20042;-82
2023/04/23 10:17:34;;;;;;;4.40;3.92;;;;;;;;;;4898568;29;20020;-81
2023/04/23 10:20:03;;;;;;;7.35;4.32;;;;;;;;;;4923260;29;20023;-83
2023/04/23 10:22:29;;;;;;;6.87;4.50;;;;;;;;;;4887036;29;20020;-79
2023/04/23 10:24:57;;;;;;;4.47;4.18;;;;;;;;;;4908995;29;20759;-79
2023/04/23 10:27:25;;;;;;;4.40;4.00;;;;;;;;;;4922161;29;20063;-80
2023/04/23 10:29:50;;;;;;;7.78;4.60;;;;;;;;;;4916127;29;20533;-79
2023/04/23 10:32:16;;;;;;;4.90;4.50;;;;;;;;;;4899236;29;20119;-79
2023/04/23 10:34:42;;;;;;;8.45;4.50;;;;;;;;;;4903069;29;20012;-79
2023/04/23 10:37:07;;;;;;;6.68;4.20;;;;;;;;;;4905708;29;20028;-82
2023/04/23 10:39:33;;;;;;;4.95;3.88;;;;;;;;;;4907150;29;20201;-78
2023/04/23 10:41:59;;;;;;;4.78;3.72;;;;;;;;;;4904608;29;20465;-78
2023/04/23 10:44:31;;;;;;;5.72;4.35;;;;;;;;;;4892826;29;20066;-81
2023/04/23 10:46:57;;;;;;;8.18;3.80;;;;;;;;;;4905161;29;20098;-78
2023/04/23 10:49:29;;;;;;;5.65;4.25;;;;;;;;;;4899139;29;20110;-79
2023/04/23 10:51:58;;;;;;;5.00;4.45;;;;;;;;;;4923117;29;20078;-79
2023/04/23 10:54:27;;;;;;;4.72;3.53;;;;;;;;;;4924472;29;20039;-78
2023/04/23 10:56:57;;;;;;;6.57;3.80;;;;;;;;;;4909188;29;20023;-78
2023/04/23 10:59:22;;;;;;;4.95;4.05;;;;;;;;;;4910804;29;20027;-80
2023/04/23 11:01:48;;;;;;;4.50;3.97;;;;;;;;;;4920747;29;20401;-80
2023/04/23 11:04:27;;;;;;;5.10;4.30;;;;;;;;;;4924335;29;21173;-81
2023/04/23 11:07:08;;;;;;;5.85;4.40;;;;;;;;;;4918035;29;20070;-80
2023/04/23 11:09:46;;;;;;;7.60;4.10;;;;;;;;;;4916667;29;20028;-79
2023/04/23 11:12:23;;;;;;;4.70;4.22;;;;;;;;;;4918007;29;20038;-79
2023/04/23 11:14:49;;;;;;;6.03;4.30;;;;;;;;;;4895612;29;20071;-83
2023/04/23 11:17:16;;;;;;;6.45;3.97;;;;;;;;;;4905140;29;20058;-80
2023/04/23 11:20:01;;;;;;;7.07;4.20;;;;;;;;;;4906095;29;20055;-79
2023/04/23 11:22:32;;;;;;;7.65;4.15;;;;;;;;;;4913871;29;20561;-80
2023/04/23 11:24:58;;;;;;;4.78;3.92;;;;;;;;;;4924015;29;21969;-80
2023/04/23 11:27:23;;;;;;;3.70;3.40;;;;;;;;;;4922161;29;20504;-79
2023/04/23 11:29:48;;;;;;;7.78;3.70;;;;;;;;;;4888363;29;20264;-80
2023/04/23 11:32:15;;;;;;;4.10;3.70;;;;;;;;;;4909920;29;20027;-80
2023/04/23 11:34:42;;;;;;;5.57;3.80;;;;;;;;;;4923733;29;20615;-80
2023/04/23 11:37:11;;;;;;;7.70;3.67;;;;;;;;;;4923014;29;20023;-79
2023/04/23 11:39:36;;;;;;;4.75;3.40;;;;;;;;;;4922867;29;21056;-81
2023/04/23 11:42:02;;;;;;;8.05;3.60;;;;;;;;;;4923330;29;20023;-81
2023/04/23 11:44:27;;;;;;;3.72;3.42;;;;;;;;;;4921745;29;20023;-80
2023/04/23 11:46:52;;;;;;;3.85;3.40;;;;;;;;;;4888369;29;20040;-78
2023/04/23 11:49:18;;;;;;;5.50;3.47;;;;;;;;;;4910628;29;20107;-81
2023/04/23 11:51:44;;;;;;;3.30;3.00;;;;;;;;;;4906798;29;20030;-81
2023/04/23 11:54:10;;;;;;;5.35;3.22;;;;;;;;;;4915039;29;20103;-79
2023/04/23 11:56:36;;;;;;;4.97;3.40;;;;;;;;;;4891455;29;20024;-79
2023/04/23 11:59:02;;;;;;;3.58;3.15;;;;;;;;;;4906065;29;20094;-81
2023/04/23 12:01:46;;;;;;;3.40;3.10;;;;;;;;;;4905267;29;20051;-82
2023/04/23 12:04:17;;;;;;;3.60;3.30;;;;;;;;;;4906450;29;20038;-80
2023/04/23 12:06:44;;;;;;;4.55;3.47;;;;;;;;;;4922007;29;20942;-79
2023/04/23 12:09:10;;;;;;;4.70;3.83;;;;;;;;;;4901122;29;20075;-80
2023/04/23 12:11:36;;;;;;;6.85;3.50;;;;;;;;;;4903512;29;20034;-80
2023/04/23 12:14:01;;;;;;;5.13;3.10;;;;;;;;;;4919806;29;20028;-81
2023/04/23 12:16:53;;;;;;;6.88;3.55;;;;;;;;;;4887313;29;20035;-81
2023/04/23 12:19:19;;;;;;;3.63;2.97;;;;;;;;;;4900965;29;20518;-79
2023/04/23 12:21:48;;;;;;;4.15;3.10;;;;;;;;;;4900945;29;20475;-80
2023/04/23 12:24:14;;;;;;;3.20;2.90;;;;;;;;;;4913732;29;20031;-81
2023/04/23 12:26:40;;;;;;;3.95;2.95;;;;;;;;;;4923807;29;20817;-80
2023/04/23 12:29:06;;;;;;;2.95;2.75;;;;;;;;;;4922752;29;20525;-80
2023/04/23 12:31:31;;;;;;;3.38;2.78;;;;;;;;;;4922111;29;20035;-79
2023/04/23 12:33:58;;;;;;;5.72;3.00;;;;;;;;;;4924253;29;20035;-78
2023/04/23 12:36:25;;;;;;;3.58;3.08;;;;;;;;;;4908055;29;20026;-79
2023/04/23 12:38:51;;;;;;;4.45;3.28;;;;;;;;;;4926212;29;20051;-84
2023/04/23 12:41:16;;;;;;;3.60;3.30;;;;;;;;;;4894223;29;20505;-82
2023/04/23 12:43:41;;;;;;;3.65;3.35;;;;;;;;;;4891303;29;20338;-80
2023/04/23 12:46:07;;;;;;;4.27;3.87;;;;;;;;;;4912529;29;20031;-81
2023/04/23 12:48:33;;;;;;;6.38;3.78;;;;;;;;;;4918192;29;20267;-85
2023/04/23 12:50:58;;;;;;;5.47;3.70;;;;;;;;;;4919082;29;20031;-80
2023/04/23 12:53:23;;;;;;;5.60;3.60;;;;;;;;;;4906158;29;20272;-79
2023/04/23 12:55:49;;;;;;;8.63;4.30;;;;;;;;;;4907645;29;20275;-79
2023/04/23 12:58:14;;;;;;;4.38;3.97;;;;;;;;;;4907611;29;21094;-81
2023/04/23 13:00:39;;;;;;;7.22;3.60;;;;;;;;;;4923031;29;20027;-82
2023/04/23 13:03:05;;;;;;;3.97;3.60;;;;;;;;;;4905298;29;20118;-81
2023/04/23 13:05:30;;;;;;;4.30;3.63;;;;;;;;;;4926159;29;20314;-85
2023/04/23 13:07:56;;;;;;;4.22;3.83;;;;;;;;;;4878590;29;20074;-84
2023/04/23 13:10:21;;;;;;;4.95;3.65;;;;;;;;;;4925772;29;20024;-85
2023/04/23 13:12:46;;;;;;;4.37;3.30;;;;;;;;;;4926406;29;20047;-82
2023/04/23 13:15:12;;;;;;;3.53;3.23;;;;;;;;;;4924906;29;20263;-84
2023/04/23 13:17:37;;;;;;;4.22;3.20;;;;;;;;;;4926214;29;20327;-82
2023/04/23 13:20:03;;;;;;;5.15;3.65;;;;;;;;;;4907243;29;20023;-82
2023/04/23 13:22:30;;;;;;;3.97;3.58;;;;;;;;;;4926156;29;20577;-83
2023/04/23 13:24:59;;;;;;;5.07;3.92;;;;;;;;;;4907263;29;20032;-81
2023/04/23 13:27:27;;;;;;;3.83;3.53;;;;;;;;;;4906875;29;20016;-80
2023/04/23 13:29:52;;;;;;;3.92;3.63;;;;;;;;;;4940386;29;20014;-84
2023/04/23 13:32:19;;;;;;;4.18;3.78;;;;;;;;;;4898290;29;20452;-83
2023/04/23 13:39:55;;;;;;;6.00;4.70;;;;;;;;;;5121049;23;20059;-83
2023/04/23 13:42:20;;;;;;;5.47;4.47;;;;;;;;;;4915998;29;20047;-83
2023/04/23 13:45:10;;;;;;;6.95;4.38;;;;;;;;;;4918839;29;20024;-83
2023/04/23 13:50:35;;;;;;;4.50;4.10;;;;;;;;;;5225475;23;20064;-83
2023/04/23 13:53:01;;;;;;;4.30;3.90;;;;;;;;;;5471955;23;20082;-80
2023/04/23 13:55:26;;;;;;;5.78;4.90;;;;;;;;;;4898618;29;20059;-84
2023/04/23 13:57:58;;;;;;;4.03;3.72;;;;;;;;;;4920613;29;20036;-81
2023/04/23 14:00:36;;;;;;;4.53;4.20;;;;;;;;;;4942371;28;20039;-81
2023/04/23 14:03:11;;;;;;;4.40;4.00;;;;;;;;;;5071200;23;20158;-81
2023/04/23 14:05:37;;;;;;;6.18;4.18;;;;;;;;;;4955430;29;20056;-82
2023/04/23 14:10:39;;;;;;;4.72;4.25;;;;;;;;;;4911568;29;20071;-86
2023/04/23 14:13:05;;;;;;;7.85;4.60;;;;;;;;;;4867288;29;20043;-86
2023/04/23 14:18:38;;;;;;;6.70;4.05;;;;;;;;;;5657819;23;20100;-83
2023/04/23 14:21:05;;;;;;;4.93;4.25;;;;;;;;;;4906874;29;20019;-84
2023/04/23 14:26:19;;;;;;;6.00;3.80;;;;;;;;;;5396887;23;20067;-82
2023/04/23 14:28:45;;;;;;;4.50;4.10;;;;;;;;;;4904228;29;20040;-85
2023/04/23 14:31:13;;;;;;;4.50;4.10;;;;;;;;;;4931514;28;20007;-81
2023/04/23 14:33:39;;;;;;;4.18;3.47;;;;;;;;;;4943677;28;20011;-81
2023/04/23 14:36:05;;;;;;;4.60;4.20;;;;;;;;;;4924059;29;20501;-86
2023/04/23 14:38:40;;;;;;;4.75;3.45;;;;;;;;;;4912111;29;20354;-81
2023/04/23 14:41:05;;;;;;;4.72;4.32;;;;;;;;;;4930730;29;20027;-85
2023/04/23 14:43:32;;;;;;;3.83;3.45;;;;;;;;;;4922573;29;20060;-83
2023/04/23 14:45:58;;;;;;;4.30;3.90;;;;;;;;;;4885469;29;20047;-85
2023/04/23 14:48:24;;;;;;;6.63;3.75;;;;;;;;;;4887721;29;20927;-84
2023/04/23 14:50:50;;;;;;;3.97;3.58;;;;;;;;;;4921072;29;20076;-81
2023/04/23 14:53:15;;;;;;;4.68;3.92;;;;;;;;;;4931867;29;20490;-84